createdAt,value
2022-12-23T00:00:08.883Z,100827.66
2022-12-23T00:02:41.147Z,100829.00
2022-12-23T00:05:16.170Z,100828.81
2022-12-23T00:07:47.092Z,100836.06
2022-12-23T00:10:17.693Z,100845.81
2022-12-23T00:13:06.788Z,100843.78
2022-12-23T00:15:38.583Z,100841.63
2022-12-23T00:18:09.554Z,100843.47
2022-12-23T00:20:41.001Z,100849.00
2022-12-23T00:23:12.045Z,100854.22
2022-12-23T00:25:47.312Z,100849.53
2022-12-23T00:28:20.826Z,100848.66
2022-12-23T00:30:56.350Z,100855.22
2022-12-23T00:33:29.548Z,100845.50
2022-12-23T00:36:01.491Z,100840.44
2022-12-23T00:38:50.097Z,100859.94
2022-12-23T00:41:40.313Z,100858.94
2022-12-23T00:44:11.097Z,100855.91
2022-12-23T00:46:42.343Z,100851.88
2022-12-23T00:49:35.925Z,100862.28
2022-12-23T00:52:08.953Z,100857.56
2022-12-23T00:54:40.481Z,100861.59
2022-12-23T00:57:11.124Z,100862.41
2022-12-23T00:59:41.787Z,100859.25
2022-12-23T01:02:32.263Z,100864.28
2022-12-23T01:05:21.222Z,100856.53
2022-12-23T01:07:53.971Z,100859.88
2022-12-23T01:10:27.716Z,100858.34
2022-12-23T01:13:01.097Z,100863.38
2022-12-23T01:15:32.233Z,100858.50
2022-12-23T01:18:03.917Z,100862.34
2022-12-23T01:20:34.846Z,100860.50
2022-12-23T01:23:05.598Z,100853.75
2022-12-23T01:25:36.104Z,100860.16
2022-12-23T01:28:07.119Z,100849.69
2022-12-23T01:30:39.628Z,100859.78
2022-12-23T01:33:10.412Z,100856.41
2022-12-23T01:35:41.578Z,100855.06
2022-12-23T01:38:12.269Z,100845.63
2022-12-23T01:40:46.044Z,100849.03
2022-12-23T01:43:21.120Z,100844.28
2022-12-23T01:45:54.407Z,100848.94
2022-12-23T01:48:27.586Z,100840.84
2022-12-23T01:51:04.338Z,100835.13
2022-12-23T01:53:40.365Z,100828.22
2022-12-23T01:56:24.938Z,100837.09
2022-12-23T01:59:02.237Z,100830.81
2022-12-23T02:01:51.574Z,100827.28
2022-12-23T02:04:25.355Z,100832.31
2022-12-23T02:07:14.342Z,100831.16
2022-12-23T02:09:45.662Z,100835.66
2022-12-23T02:12:35.039Z,100829.56
2022-12-23T02:15:35.252Z,100821.78
2022-12-23T02:18:24.312Z,100813.88
2022-12-23T02:21:12.766Z,100810.31
2022-12-23T02:23:43.057Z,100808.25
2022-12-23T02:26:24.953Z,100804.28
2022-12-23T02:29:24.331Z,100800.34
2022-12-23T02:32:03.764Z,100807.84
2022-12-23T02:34:58.610Z,100799.31
2022-12-23T02:38:05.562Z,100790.19
2022-12-23T02:40:48.387Z,100788.03
2022-12-23T02:43:41.199Z,100787.38
2022-12-23T02:46:22.271Z,100783.13
2022-12-23T02:49:16.884Z,100781.53
2022-12-23T02:51:53.577Z,100781.44
2022-12-23T02:54:34.295Z,100779.03
2022-12-23T02:57:09.469Z,100774.50
2022-12-23T02:59:46.822Z,100769.09
2022-12-23T03:02:17.536Z,100762.84
2022-12-23T03:04:48.433Z,100761.84
2022-12-23T03:07:43.835Z,100763.72
2022-12-23T03:10:36.189Z,100753.38
2022-12-23T03:13:40.106Z,100756.72
2022-12-23T03:16:22.437Z,100754.31
2022-12-23T03:19:14.915Z,100749.13
2022-12-23T03:22:23.108Z,100755.72
2022-12-23T03:25:12.315Z,100741.28
2022-12-23T03:28:23.116Z,100749.81
2022-12-23T03:30:56.373Z,100740.06
2022-12-23T03:33:35.828Z,100751.50
2022-12-23T03:36:17.455Z,100741.25
2022-12-23T03:38:48.760Z,100725.41
2022-12-23T03:41:23.481Z,100723.75
2022-12-23T03:44:04.757Z,100716.19
2022-12-23T03:46:40.406Z,100714.03
2022-12-23T03:49:16.451Z,100716.09
2022-12-23T03:51:58.111Z,100704.97
2022-12-23T03:54:32.917Z,100711.78
2022-12-23T03:57:05.911Z,100702.84
2022-12-23T03:59:39.880Z,100699.56
2022-12-23T04:02:35.744Z,100700.03
2022-12-23T04:05:23.629Z,100697.88
2022-12-23T04:08:02.906Z,100697.72
2022-12-23T04:10:33.796Z,100690.44
2022-12-23T04:13:04.490Z,100685.09
2022-12-23T04:15:37.969Z,100683.03
2022-12-23T04:18:10.606Z,100672.69
2022-12-23T04:20:41.729Z,100664.41
2022-12-23T04:23:12.962Z,100668.16
2022-12-23T04:25:44.261Z,100657.41
2022-12-23T04:28:19.164Z,100643.31
2022-12-23T04:30:50.522Z,100642.06
2022-12-23T04:33:21.440Z,100637.56
2022-12-23T04:35:52.109Z,100629.72
2022-12-23T04:38:23.141Z,100628.78
2022-12-23T04:40:53.789Z,100624.00
2022-12-23T04:43:24.365Z,100618.03
2022-12-23T04:45:54.909Z,100617.00
2022-12-23T04:48:25.685Z,100609.94
2022-12-23T04:51:03.836Z,100609.53
2022-12-23T04:53:38.030Z,100599.34
2022-12-23T04:56:09.566Z,100604.13
2022-12-23T04:58:40.039Z,100592.91
2022-12-23T05:01:14.330Z,100584.59
2022-12-23T05:03:45.160Z,100583.78
2022-12-23T05:06:15.772Z,100569.66
2022-12-23T05:08:46.407Z,100569.66
2022-12-23T05:11:17.756Z,100558.88
2022-12-23T05:13:49.098Z,100558.47
2022-12-23T05:16:19.893Z,100561.00
2022-12-23T05:18:53.110Z,100558.34
2022-12-23T05:21:23.826Z,100557.06
2022-12-23T05:23:54.708Z,100538.13
2022-12-23T05:26:25.724Z,100534.41
2022-12-23T05:28:56.855Z,100532.34
2022-12-23T05:31:27.544Z,100532.75
2022-12-23T05:34:06.353Z,100534.84
2022-12-23T05:36:37.195Z,100531.53
2022-12-23T05:39:08.901Z,100525.91
2022-12-23T05:41:40.487Z,100523.19
2022-12-23T05:44:10.790Z,100520.06
2022-12-23T05:46:43.773Z,100513.19
2022-12-23T05:49:14.546Z,100504.88
2022-12-23T05:51:45.143Z,100488.84
2022-12-23T05:54:15.987Z,100497.59
2022-12-23T05:56:46.660Z,100496.34
2022-12-23T05:59:18.487Z,100494.69
2022-12-23T06:01:49.742Z,100497.38
2022-12-23T06:04:20.452Z,100489.44
2022-12-23T06:06:50.805Z,100484.47
2022-12-23T06:09:24.277Z,100486.97
2022-12-23T06:11:54.825Z,100474.47
2022-12-23T06:14:29.090Z,100481.75
2022-12-23T06:17:00.288Z,100477.59
2022-12-23T06:19:30.899Z,100480.09
2022-12-23T06:22:02.187Z,100478.22
2022-12-23T06:24:33.691Z,100492.59
2022-12-23T06:27:04.018Z,100474.50
2022-12-23T06:29:36.862Z,100469.50
2022-12-23T06:32:08.272Z,100459.94
2022-12-23T06:34:39.283Z,100473.66
2022-12-23T06:37:09.617Z,100468.47
2022-12-23T06:39:40.119Z,100475.31
2022-12-23T06:42:10.651Z,100457.81
2022-12-23T06:44:42.106Z,100463.25
2022-12-23T06:47:12.990Z,100459.88
2022-12-23T06:49:43.608Z,100481.53
2022-12-23T06:52:13.937Z,100466.13
2022-12-23T06:54:44.529Z,100475.28
2022-12-23T06:57:14.808Z,100477.34
2022-12-23T06:59:45.640Z,100474.00
2022-12-23T07:02:16.200Z,100484.81
2022-12-23T07:04:47.001Z,100482.69
2022-12-23T07:07:18.507Z,100478.53
2022-12-23T07:09:49.085Z,100478.97
2022-12-23T07:12:20.375Z,100483.94
2022-12-23T07:14:51.035Z,100478.50
2022-12-23T07:17:24.357Z,100482.66
2022-12-23T07:19:54.911Z,100482.03
2022-12-23T07:22:25.732Z,100483.47
2022-12-23T07:24:56.038Z,100485.13
2022-12-23T07:27:26.825Z,100481.78
2022-12-23T07:29:57.245Z,100485.09
2022-12-23T07:32:28.162Z,100494.63
2022-12-23T07:34:58.783Z,100489.22
2022-12-23T07:37:29.572Z,100497.97
2022-12-23T07:40:08.267Z,100491.66
2022-12-23T07:42:47.269Z,100494.34
2022-12-23T07:45:20.901Z,100499.13
2022-12-23T07:47:58.096Z,100497.88
2022-12-23T07:50:34.032Z,100496.00
2022-12-23T07:53:04.897Z,100499.28
2022-12-23T07:55:35.644Z,100502.22
2022-12-23T07:58:06.471Z,100513.19
2022-12-23T08:00:37.360Z,100521.06
2022-12-23T08:03:09.753Z,100522.75
2022-12-23T08:05:40.421Z,100521.47
2022-12-23T08:08:11.271Z,100529.16
2022-12-23T08:10:48.053Z,100531.44
2022-12-23T08:13:19.163Z,100533.88
2022-12-23T08:15:50.236Z,100538.25
2022-12-23T08:18:20.933Z,100549.19
2022-12-23T08:21:04.258Z,100554.16
2022-12-23T08:23:36.934Z,100563.50
2022-12-23T08:26:10.751Z,100565.09
2022-12-23T08:28:46.515Z,100566.88
2022-12-23T08:31:30.001Z,100567.31
2022-12-23T08:34:02.044Z,100576.19
2022-12-23T08:36:34.952Z,100568.09
2022-12-23T08:39:09.019Z,100575.56
2022-12-23T08:41:42.781Z,100581.34
2022-12-23T08:44:14.204Z,100590.47
2022-12-23T08:46:46.183Z,100589.44
2022-12-23T08:49:17.468Z,100588.53
2022-12-23T08:51:48.507Z,100592.03
2022-12-23T08:54:21.280Z,100595.91
2022-12-23T08:56:52.320Z,100591.13
2022-12-23T08:59:22.778Z,100596.91
2022-12-23T09:01:53.517Z,100599.16
2022-12-23T09:04:24.185Z,100602.88
2022-12-23T09:06:54.891Z,100601.38
2022-12-23T09:09:25.503Z,100597.22
2022-12-23T09:11:56.568Z,100613.22
2022-12-23T09:14:27.286Z,100610.88
2022-12-23T09:16:58.429Z,100610.78
2022-12-23T09:19:29.083Z,100618.97
2022-12-23T09:22:00.227Z,100624.66
2022-12-23T09:24:31.541Z,100628.56
2022-12-23T09:27:02.473Z,100625.44
2022-12-23T09:29:33.785Z,100640.19
2022-12-23T09:32:04.652Z,100640.75
2022-12-23T09:34:35.567Z,100638.16
2022-12-23T09:37:07.012Z,100635.28
2022-12-23T09:39:40.096Z,100639.47
2022-12-23T09:42:34.588Z,100635.94
2022-12-23T09:45:17.561Z,100640.59
2022-12-23T09:47:48.184Z,100641.97
2022-12-23T09:50:32.024Z,100650.63
2022-12-23T09:53:23.074Z,100648.88
2022-12-23T09:55:59.567Z,100652.41
2022-12-23T09:58:49.830Z,100666.81
2022-12-23T10:01:45.035Z,100657.78
2022-12-23T10:04:25.170Z,100668.56
2022-12-23T10:07:07.262Z,100670.19
2022-12-23T10:09:40.789Z,100678.44
2022-12-23T10:12:39.089Z,100688.69
2022-12-23T10:15:22.554Z,100693.50
2022-12-23T10:17:56.078Z,100700.94
2022-12-23T10:20:41.618Z,100696.75
2022-12-23T10:23:18.291Z,100697.69
2022-12-23T10:25:52.824Z,100694.34
2022-12-23T10:28:24.844Z,100710.41
2022-12-23T10:31:30.867Z,100717.75
2022-12-23T10:34:36.610Z,100719.25
2022-12-23T10:37:18.868Z,100723.81
2022-12-23T10:40:27.680Z,100723.81
2022-12-23T10:43:00.547Z,100724.16
2022-12-23T10:45:31.911Z,100725.56
2022-12-23T10:48:23.467Z,100735.69
2022-12-23T10:51:04.896Z,100736.94
2022-12-23T10:54:04.358Z,100745.75
2022-12-23T10:56:35.232Z,100755.03
2022-12-23T10:59:09.034Z,100758.75
2022-12-23T11:01:40.975Z,100762.00
2022-12-23T11:04:22.524Z,100771.13
2022-12-23T11:07:18.276Z,100769.25
2022-12-23T11:10:06.312Z,100776.50
2022-12-23T11:12:45.255Z,100778.19
2022-12-23T11:15:39.367Z,100785.97
2022-12-23T11:18:13.745Z,100781.59
2022-12-23T11:20:46.677Z,100778.91
2022-12-23T11:23:31.641Z,100784.31
2022-12-23T11:26:05.350Z,100799.97
2022-12-23T11:28:39.645Z,100794.59
2022-12-23T11:31:15.347Z,100791.25
2022-12-23T11:33:57.376Z,100798.19
2022-12-23T11:36:29.858Z,100799.50
2022-12-23T11:39:08.312Z,100798.31
2022-12-23T11:41:45.372Z,100805.72
2022-12-23T11:44:28.082Z,100818.72
2022-12-23T11:47:00.351Z,100811.00
2022-12-23T11:49:32.784Z,100825.03
2022-12-23T11:52:11.295Z,100821.31
2022-12-23T11:54:42.289Z,100825.69
2022-12-23T11:57:20.119Z,100828.38
2022-12-23T11:59:51.881Z,100832.09
2022-12-23T12:02:42.768Z,100826.75
2022-12-23T12:05:29.382Z,100828.69
2022-12-23T12:08:05.468Z,100832.31
2022-12-23T12:10:36.969Z,100835.34
2022-12-23T12:13:10.573Z,100836.63
2022-12-23T12:16:04.297Z,100837.47
2022-12-23T12:18:35.845Z,100859.13
2022-12-23T12:21:13.811Z,100849.31
2022-12-23T12:23:55.472Z,100841.50
2022-12-23T12:26:40.830Z,100852.28
2022-12-23T12:29:31.371Z,100849.44
2022-12-23T12:32:03.575Z,100859.66
2022-12-23T12:34:42.965Z,100861.97
2022-12-23T12:37:21.885Z,100859.47
2022-12-23T12:40:13.012Z,100864.38
2022-12-23T12:42:45.741Z,100864.03
2022-12-23T12:45:57.628Z,100869.06
2022-12-23T12:48:59.839Z,100873.78
2022-12-23T12:51:49.859Z,100866.34
2022-12-23T12:55:02.288Z,100873.13
2022-12-23T12:57:38.177Z,100868.09
2022-12-23T13:00:25.555Z,100869.78
2022-12-23T13:03:13.404Z,100863.19
2022-12-23T13:06:14.385Z,100866.72
2022-12-23T13:09:07.016Z,100869.78
2022-12-23T13:12:09.229Z,100879.84
2022-12-23T13:15:00.288Z,100873.50
2022-12-23T13:17:37.659Z,100879.25
2022-12-23T13:20:38.278Z,100877.22
2022-12-23T13:23:42.869Z,100884.28
2022-12-23T13:26:35.023Z,100893.75
2022-12-23T13:29:29.038Z,100884.56
2022-12-23T13:32:17.749Z,100879.38
2022-12-23T13:34:53.533Z,100878.72
2022-12-23T13:37:45.177Z,100884.53
2022-12-23T13:40:38.400Z,100888.41
2022-12-23T13:43:17.739Z,100887.91
2022-12-23T13:45:49.388Z,100890.00
2022-12-23T13:48:53.949Z,100893.00
2022-12-23T13:52:01.250Z,100895.69
2022-12-23T13:54:37.145Z,100897.78
2022-12-23T13:57:41.089Z,100889.69
2022-12-23T14:00:23.062Z,100899.16
2022-12-23T14:02:54.698Z,100894.72
2022-12-23T14:05:48.128Z,100885.78
2022-12-23T14:08:22.127Z,100884.66
2022-12-23T14:11:02.246Z,100878.63
2022-12-23T14:13:42.371Z,100885.97
2022-12-23T14:16:17.781Z,100884.78
2022-12-23T14:19:02.845Z,100882.94
2022-12-23T14:21:42.437Z,100881.13
2022-12-23T14:24:30.906Z,100881.63
2022-12-23T14:27:22.891Z,100875.91
2022-12-23T14:30:11.819Z,100874.25
2022-12-23T14:33:03.832Z,100877.97
2022-12-23T14:35:42.865Z,100876.34
2022-12-23T14:38:17.002Z,100875.66
2022-12-23T14:40:52.592Z,100866.72
2022-12-23T14:43:52.344Z,100868.91
2022-12-23T14:46:51.462Z,100864.53
2022-12-23T14:49:45.561Z,100866.53
2022-12-23T14:52:51.943Z,100869.22
2022-12-23T14:55:31.596Z,100871.59
2022-12-23T14:58:25.893Z,100868.25
2022-12-23T15:01:04.733Z,100866.56
2022-12-23T15:03:41.661Z,100864.22
2022-12-23T15:06:44.473Z,100862.50
2022-12-23T15:09:55.711Z,100858.13
2022-12-23T15:12:35.783Z,100862.88
2022-12-23T15:15:27.104Z,100869.25
2022-12-23T15:18:11.189Z,100865.06
2022-12-23T15:20:41.876Z,100874.03
2022-12-23T15:23:15.844Z,100866.31
2022-12-23T15:25:47.915Z,100873.72
2022-12-23T15:28:26.245Z,100878.47
2022-12-23T15:30:58.149Z,100874.56
2022-12-23T15:36:29.474Z,100876.22
2022-12-23T15:39:01.614Z,100873.22
2022-12-23T15:41:32.824Z,100879.13
2022-12-23T15:44:11.049Z,100873.38
2022-12-23T15:46:42.757Z,100867.31
2022-12-23T15:49:14.467Z,100862.28
2022-12-23T15:52:07.237Z,100866.47
2022-12-23T15:54:59.325Z,100879.13
2022-12-23T15:57:31.233Z,100877.25
2022-12-23T16:00:02.477Z,100868.00
2022-12-23T16:03:02.175Z,100871.19
2022-12-23T16:05:38.479Z,100871.03
2022-12-23T16:08:21.797Z,100870.69
2022-12-23T16:11:08.503Z,100874.91
2022-12-23T16:13:43.124Z,100873.06
2022-12-23T16:16:43.735Z,100872.53
2022-12-23T16:19:48.949Z,100881.16
2022-12-23T16:22:22.626Z,100874.09
2022-12-23T16:25:16.010Z,100879.13
2022-12-23T16:27:50.229Z,100876.13
2022-12-23T16:30:27.348Z,100879.47
2022-12-23T16:33:08.873Z,100887.34
2022-12-23T16:35:42.099Z,100872.41
2022-12-23T16:38:26.154Z,100874.09
2022-12-23T16:40:58.391Z,100865.34
2022-12-23T16:43:29.300Z,100866.34
2022-12-23T16:46:00.836Z,100870.88
2022-12-23T16:48:44.772Z,100858.59
2022-12-23T16:51:17.992Z,100863.81
2022-12-23T16:53:56.212Z,100849.19
2022-12-23T16:56:30.217Z,100855.59
2022-12-23T16:59:00.766Z,100845.84
2022-12-23T17:01:40.273Z,100848.53
2022-12-23T17:04:11.486Z,100853.25
2022-12-23T17:06:42.555Z,100839.44
2022-12-23T17:09:13.287Z,100838.13
2022-12-23T17:11:49.633Z,100838.69
2022-12-23T17:14:25.157Z,100833.66
2022-12-23T17:16:55.825Z,100833.13
2022-12-23T17:19:29.177Z,100837.88
2022-12-23T17:22:03.252Z,100831.50
2022-12-23T17:24:33.768Z,100828.13
2022-12-23T17:27:06.534Z,100828.00
2022-12-23T17:29:37.387Z,100831.38
2022-12-23T17:32:13.483Z,100823.81
2022-12-23T17:34:44.290Z,100816.75
2022-12-23T17:37:17.327Z,100808.72
2022-12-23T17:39:48.690Z,100807.66
2022-12-23T17:42:25.812Z,100806.34
2022-12-23T17:44:57.606Z,100799.28
2022-12-23T17:47:29.183Z,100794.94
2022-12-23T17:49:59.510Z,100792.09
2022-12-23T17:52:30.280Z,100798.28
2022-12-23T17:55:01.255Z,100785.69
2022-12-23T17:57:32.707Z,100783.81
2022-12-23T18:00:03.082Z,100775.59
2022-12-23T18:02:42.514Z,100773.25
2022-12-23T18:05:27.789Z,100773.06
2022-12-23T18:08:00.578Z,100767.03
2022-12-23T18:10:38.531Z,100770.72
2022-12-23T18:13:14.963Z,100762.31
2022-12-23T18:15:46.740Z,100759.28
2022-12-23T18:18:28.565Z,100764.53
2022-12-23T18:21:01.605Z,100759.63
2022-12-23T18:23:34.857Z,100758.13
2022-12-23T18:26:09.020Z,100753.28
2022-12-23T18:28:42.834Z,100749.59
2022-12-23T18:31:22.830Z,100748.59
2022-12-23T18:33:53.517Z,100748.72
2022-12-23T18:36:31.275Z,100744.22
2022-12-23T18:39:01.959Z,100741.13
2022-12-23T18:41:33.112Z,100743.00
2022-12-23T18:44:04.226Z,100745.03
2022-12-23T18:46:35.343Z,100747.91
2022-12-23T18:49:05.856Z,100746.50
2022-12-23T18:51:36.674Z,100743.53
2022-12-23T18:54:07.983Z,100746.22
2022-12-23T18:56:39.006Z,100742.88
2022-12-23T18:59:17.274Z,100742.53
2022-12-23T19:01:48.075Z,100741.19
2022-12-23T19:04:18.835Z,100745.56
2022-12-23T19:06:49.357Z,100745.09
2022-12-23T19:09:21.819Z,100743.91
2022-12-23T19:11:54.545Z,100741.59
2022-12-23T19:14:25.195Z,100749.00
2022-12-23T19:17:00.892Z,100756.53
2022-12-23T19:19:31.647Z,100751.31
2022-12-23T19:22:03.270Z,100747.97
2022-12-23T19:24:34.156Z,100752.72
2022-12-23T19:27:07.786Z,100761.44
2022-12-23T19:29:38.672Z,100757.41
2022-12-23T19:32:09.478Z,100756.06
2022-12-23T19:34:40.177Z,100760.44
2022-12-23T19:37:11.039Z,100760.09
2022-12-23T19:39:42.365Z,100765.16
2022-12-23T19:42:12.918Z,100779.59
2022-12-23T19:44:43.413Z,100771.22
2022-12-23T19:47:13.989Z,100778.75
2022-12-23T19:49:44.381Z,100779.09
2022-12-23T19:52:15.041Z,100779.06
2022-12-23T19:54:46.262Z,100787.47
2022-12-23T19:57:16.892Z,100790.34
2022-12-23T19:59:48.143Z,100784.97
2022-12-23T20:02:20.940Z,100798.56
2022-12-23T20:04:51.521Z,100795.88
2022-12-23T20:07:22.043Z,100798.94
2022-12-23T20:09:53.332Z,100800.28
2022-12-23T20:12:24.519Z,100800.13
2022-12-23T20:14:57.921Z,100804.81
2022-12-23T20:17:28.465Z,100808.53
2022-12-23T20:19:59.117Z,100815.25
2022-12-23T20:22:32.577Z,100811.38
2022-12-23T20:25:06.354Z,100808.19
2022-12-23T20:27:39.678Z,100801.94
2022-12-23T20:30:11.333Z,100800.28
2022-12-23T20:32:41.831Z,100795.09
2022-12-23T20:35:13.509Z,100794.44
2022-12-23T20:37:45.165Z,100791.84
2022-12-23T20:40:18.426Z,100795.91
2022-12-23T20:42:48.692Z,100797.75
2022-12-23T20:45:19.330Z,100799.78
2022-12-23T20:47:49.892Z,100796.09
2022-12-23T20:50:20.628Z,100803.81
2022-12-23T20:52:51.727Z,100795.06
2022-12-23T20:55:22.127Z,100797.91
2022-12-23T20:57:52.544Z,100809.53
2022-12-23T21:00:23.006Z,100806.31
2022-12-23T21:02:53.620Z,100805.66
2022-12-23T21:05:24.200Z,100805.81
2022-12-23T21:07:54.806Z,100807.66
2022-12-23T21:10:24.888Z,100813.88
2022-12-23T21:12:55.806Z,100813.22
2022-12-23T21:15:26.663Z,100826.31
2022-12-23T21:17:57.604Z,100824.63
2022-12-23T21:20:28.751Z,100837.06
2022-12-23T21:23:00.229Z,100833.72
2022-12-23T21:25:30.813Z,100836.56
2022-12-23T21:28:01.158Z,100830.69
2022-12-23T21:30:35.123Z,100829.34
2022-12-23T21:33:14.824Z,100837.22
2022-12-23T21:35:45.371Z,100834.03
2022-12-23T21:38:16.867Z,100845.47
2022-12-23T21:40:50.710Z,100852.53
2022-12-23T21:43:23.918Z,100860.91
2022-12-23T21:45:59.136Z,100872.34
2022-12-23T21:48:32.169Z,100872.00
2022-12-23T21:51:19.986Z,100863.94
2022-12-23T21:53:53.354Z,100864.63
2022-12-23T21:56:27.402Z,100860.59
2022-12-23T21:59:00.114Z,100869.16
2022-12-23T22:01:34.115Z,100873.34
2022-12-23T22:04:04.746Z,100874.88
2022-12-23T22:06:43.031Z,100873.34
2022-12-23T22:09:20.527Z,100874.03
2022-12-23T22:11:52.523Z,100892.50
2022-12-23T22:14:23.877Z,100891.16
2022-12-23T22:16:54.556Z,100903.59
2022-12-23T22:19:25.347Z,100907.78
2022-12-23T22:21:55.742Z,100907.59
2022-12-23T22:24:26.227Z,100908.78
2022-12-23T22:26:56.825Z,100910.97
2022-12-23T22:29:27.426Z,100911.16
2022-12-23T22:31:58.326Z,100915.00
2022-12-23T22:34:29.314Z,100906.09
2022-12-23T22:37:02.581Z,100906.09
2022-12-23T22:39:33.418Z,100904.91
2022-12-23T22:42:04.319Z,100910.16
2022-12-23T22:44:35.413Z,100912.31
2022-12-23T22:47:05.751Z,100912.31
2022-12-23T22:49:36.284Z,100910.97
2022-12-23T22:52:08.047Z,100912.16
2022-12-23T22:54:38.610Z,100913.50
2022-12-23T22:57:09.183Z,100909.94
2022-12-23T22:59:39.734Z,100924.56
2022-12-23T23:02:10.446Z,100926.06
2022-12-23T23:04:40.999Z,100931.44
2022-12-23T23:07:11.627Z,100928.94
2022-12-23T23:09:42.642Z,100940.84
2022-12-23T23:12:13.800Z,100945.22
2022-12-23T23:15:01.911Z,100954.59
2022-12-23T23:17:33.292Z,100952.25
2022-12-23T23:20:06.381Z,100955.28
2022-12-23T23:22:40.199Z,100956.25
2022-12-23T23:25:11.366Z,100958.66
2022-12-23T23:27:41.617Z,100957.81
2022-12-23T23:30:12.574Z,100966.88
2022-12-23T23:32:43.164Z,100969.53
2022-12-23T23:35:14.143Z,100970.03
2022-12-23T23:37:45.011Z,100971.06
2022-12-23T23:40:17.277Z,100980.84
2022-12-23T23:42:48.293Z,100986.91
2022-12-23T23:45:22.334Z,100989.94
2022-12-23T23:47:53.000Z,100984.56
2022-12-23T23:50:26.268Z,100994.16
2022-12-23T23:52:58.336Z,100989.63
2022-12-23T23:55:29.405Z,100989.94
2022-12-23T23:57:59.852Z,100993.00
